createdAt,value
2018-12-29T00:00:28.401Z,8.03
2018-12-29T00:02:58.840Z,7.87
2018-12-29T00:05:27.861Z,8.30
2018-12-29T00:07:56.768Z,8.07
2018-12-29T00:10:25.709Z,8.83
2018-12-29T00:12:54.711Z,7.73
2018-12-29T00:15:23.694Z,7.37
2018-12-29T00:17:52.669Z,7.63
2018-12-29T00:20:21.646Z,8.77
2018-12-29T00:22:50.648Z,7.93
2018-12-29T00:25:19.616Z,8.30
2018-12-29T00:27:48.615Z,8.67
2018-12-29T00:30:17.586Z,7.50
2018-12-29T00:32:46.546Z,7.50
2018-12-29T00:35:15.568Z,8.43
2018-12-29T00:37:44.488Z,8.10
2018-12-29T00:40:13.483Z,7.13
2018-12-29T00:42:42.468Z,7.93
2018-12-29T00:45:11.434Z,7.37
2018-12-29T00:47:40.427Z,7.43
2018-12-29T00:50:09.448Z,8.17
2018-12-29T00:52:38.401Z,7.63
2018-12-29T00:55:07.385Z,7.90
2018-12-29T00:57:36.343Z,7.50
2018-12-29T01:00:05.751Z,7.37
2018-12-29T01:02:34.720Z,7.80
2018-12-29T01:05:03.814Z,7.83
2018-12-29T01:07:32.797Z,7.67
2018-12-29T01:10:01.688Z,7.27
2018-12-29T01:12:30.667Z,7.70
2018-12-29T01:14:59.717Z,8.07
2018-12-29T01:17:28.692Z,7.33
2018-12-29T01:19:57.757Z,6.93
2018-12-29T01:22:26.741Z,7.30
2018-12-29T01:24:55.721Z,7.33
2018-12-29T01:27:24.709Z,7.20
2018-12-29T01:29:53.749Z,7.70
2018-12-29T01:32:22.669Z,7.33
2018-12-29T01:34:51.907Z,7.13
2018-12-29T01:37:20.919Z,7.27
2018-12-29T01:39:49.902Z,7.70
2018-12-29T01:42:18.870Z,7.17
2018-12-29T01:44:47.856Z,7.53
2018-12-29T01:47:16.804Z,6.83
2018-12-29T01:49:45.868Z,7.53
2018-12-29T01:52:14.891Z,7.30
2018-12-29T01:54:43.815Z,6.73
2018-12-29T01:57:12.769Z,7.23
2018-12-29T01:59:41.704Z,7.30
2018-12-29T02:02:10.633Z,6.90
2018-12-29T02:04:39.628Z,7.33
2018-12-29T02:07:10.412Z,7.00
2018-12-29T02:09:39.482Z,7.47
2018-12-29T02:12:08.454Z,7.03
2018-12-29T02:14:37.416Z,6.70
2018-12-29T02:17:06.664Z,7.30
2018-12-29T02:19:35.582Z,6.77
2018-12-29T02:22:04.631Z,6.33
2018-12-29T02:24:33.639Z,6.40
2018-12-29T02:27:02.619Z,6.30
2018-12-29T02:29:31.571Z,6.77
2018-12-29T02:32:00.509Z,6.50
2018-12-29T02:34:29.473Z,6.73
2018-12-29T02:36:58.481Z,6.97
2018-12-29T02:39:27.468Z,6.93
2018-12-29T02:41:56.721Z,6.30
2018-12-29T02:44:25.709Z,6.43
2018-12-29T02:46:54.628Z,6.73
2018-12-29T02:49:23.575Z,6.53
2018-12-29T02:51:52.557Z,6.43
2018-12-29T02:54:21.525Z,6.07
2018-12-29T02:56:50.510Z,6.17
2018-12-29T02:59:19.500Z,6.20
2018-12-29T03:01:48.543Z,6.37
2018-12-29T03:04:17.526Z,6.27
2018-12-29T03:06:46.591Z,5.93
2018-12-29T03:09:15.549Z,5.77
2018-12-29T03:11:44.554Z,5.30
2018-12-29T03:14:13.512Z,5.70
2018-12-29T03:16:42.580Z,6.13
2018-12-29T03:19:11.550Z,6.20
2018-12-29T03:21:40.548Z,5.90
2018-12-29T03:24:09.528Z,5.57
2018-12-29T03:26:38.591Z,5.93
2018-12-29T03:29:07.525Z,5.30
2018-12-29T03:31:36.483Z,5.50
2018-12-29T03:34:05.492Z,5.80
2018-12-29T03:36:34.435Z,5.37
2018-12-29T03:39:04.558Z,5.23
2018-12-29T03:41:33.540Z,5.53
2018-12-29T03:44:02.521Z,5.07
2018-12-29T03:46:31.483Z,5.50
2018-12-29T03:49:00.445Z,5.67
2018-12-29T03:51:29.430Z,5.13
2018-12-29T03:53:58.406Z,5.27
2018-12-29T03:56:27.359Z,5.67
2018-12-29T03:58:56.289Z,5.30
2018-12-29T04:01:25.294Z,4.80
2018-12-29T04:03:54.351Z,5.63
2018-12-29T04:06:23.331Z,5.07
2018-12-29T04:09:30.375Z,5.50
2018-12-29T04:11:59.504Z,5.07
2018-12-29T04:14:28.550Z,4.80
2018-12-29T04:16:57.522Z,4.83
2018-12-29T04:19:26.515Z,4.80
2018-12-29T04:21:55.487Z,4.87
2018-12-29T04:24:24.482Z,4.60
2018-12-29T04:26:53.512Z,4.27
2018-12-29T04:29:22.476Z,4.50
2018-12-29T04:31:51.387Z,4.40
2018-12-29T04:34:20.353Z,4.00
2018-12-29T04:36:49.347Z,4.20
2018-12-29T04:39:18.398Z,4.50
2018-12-29T04:41:47.463Z,4.40
2018-12-29T04:44:16.447Z,4.50
2018-12-29T04:46:45.427Z,4.33
2018-12-29T04:49:14.401Z,4.00
2018-12-29T04:51:43.377Z,4.60
2018-12-29T04:54:12.430Z,4.13
2018-12-29T04:56:41.413Z,4.00
2018-12-29T04:59:10.412Z,4.47
2018-12-29T05:01:39.413Z,4.10
2018-12-29T05:04:08.454Z,4.07
2018-12-29T05:06:37.421Z,3.70
2018-12-29T05:09:08.121Z,4.83
2018-12-29T05:11:37.092Z,3.90
2018-12-29T05:14:06.049Z,4.33
2018-12-29T05:16:35.034Z,3.50
2018-12-29T05:19:04.076Z,3.97
2018-12-29T05:21:33.066Z,3.70
2018-12-29T05:24:02.029Z,3.63
2018-12-29T05:26:31.013Z,3.90
2018-12-29T05:28:59.969Z,3.63
2018-12-29T05:31:29.006Z,3.33
2018-12-29T05:33:58.001Z,3.63
2018-12-29T05:36:26.983Z,4.03
2018-12-29T05:38:55.965Z,3.90
2018-12-29T05:41:24.942Z,3.90
2018-12-29T05:43:53.921Z,3.50
2018-12-29T05:46:22.885Z,3.37
2018-12-29T05:48:51.873Z,3.80
2018-12-29T05:51:20.919Z,3.20
2018-12-29T05:53:49.920Z,3.47
2018-12-29T05:56:18.908Z,3.47
2018-12-29T05:58:47.869Z,3.77
2018-12-29T06:01:16.797Z,3.10
2018-12-29T06:03:45.764Z,3.20
2018-12-29T06:06:14.822Z,2.77
2018-12-29T06:08:43.811Z,3.20
2018-12-29T06:11:12.773Z,3.43
2018-12-29T06:13:41.767Z,3.27
2018-12-29T06:16:10.802Z,3.10
2018-12-29T06:18:39.834Z,3.20
2018-12-29T06:21:08.824Z,3.20
2018-12-29T06:23:37.798Z,2.80
2018-12-29T06:26:06.800Z,3.50
2018-12-29T06:28:35.781Z,3.20
2018-12-29T06:31:04.703Z,3.50
2018-12-29T06:33:33.624Z,3.03
2018-12-29T06:36:02.587Z,3.33
2018-12-29T06:38:31.564Z,3.10
2018-12-29T06:41:00.476Z,2.87
2018-12-29T06:43:29.422Z,2.80
2018-12-29T06:45:58.372Z,2.90
2018-12-29T06:48:27.339Z,2.70
2018-12-29T06:50:56.341Z,3.13
2018-12-29T06:53:25.409Z,3.00
2018-12-29T06:55:54.491Z,2.57
2018-12-29T06:58:23.454Z,2.90
2018-12-29T07:00:52.451Z,2.60
2018-12-29T07:03:21.521Z,2.70
2018-12-29T07:05:50.524Z,2.67
2018-12-29T07:08:19.592Z,2.83
2018-12-29T07:10:48.557Z,3.03
2018-12-29T07:13:17.536Z,2.60
2018-12-29T07:15:46.600Z,2.67
2018-12-29T07:18:15.515Z,2.50
2018-12-29T07:20:44.473Z,2.83
2018-12-29T07:23:13.503Z,2.60
2018-12-29T07:25:42.449Z,2.63
2018-12-29T07:28:11.525Z,2.87
2018-12-29T07:30:40.495Z,2.77
2018-12-29T07:33:09.450Z,2.17
2018-12-29T07:35:38.389Z,2.60
2018-12-29T07:38:07.447Z,2.43
2018-12-29T07:40:36.397Z,2.73
2018-12-29T07:43:05.322Z,2.50
2018-12-29T07:45:34.321Z,2.50
2018-12-29T07:48:03.289Z,2.40
2018-12-29T07:50:32.268Z,2.63
2018-12-29T07:53:01.410Z,2.50
2018-12-29T07:55:30.427Z,2.47
2018-12-29T07:57:59.386Z,2.80
2018-12-29T08:00:28.366Z,2.70
2018-12-29T08:02:57.366Z,2.87
2018-12-29T08:05:26.354Z,3.00
2018-12-29T08:07:55.331Z,2.73
2018-12-29T08:10:24.273Z,2.37
2018-12-29T08:12:53.284Z,2.30
2018-12-29T08:15:22.249Z,2.10
2018-12-29T08:17:51.234Z,2.87
2018-12-29T08:20:20.287Z,2.80
2018-12-29T08:22:49.278Z,2.40
2018-12-29T08:25:18.246Z,3.03
2018-12-29T08:27:47.211Z,2.37
2018-12-29T08:30:16.233Z,2.50
2018-12-29T08:32:45.201Z,2.33
2018-12-29T08:35:14.186Z,2.40
2018-12-29T08:37:43.237Z,2.50
2018-12-29T08:40:12.220Z,2.33
2018-12-29T08:42:41.179Z,2.37
2018-12-29T08:45:10.243Z,2.47
2018-12-29T08:47:39.322Z,2.63
2018-12-29T08:50:12.907Z,2.80
2018-12-29T08:52:39.086Z,2.57
2018-12-29T08:55:08.058Z,2.93
2018-12-29T08:57:36.981Z,2.93
2018-12-29T09:00:06.539Z,2.40
2018-12-29T09:02:35.497Z,2.20
2018-12-29T09:05:04.571Z,2.83
2018-12-29T09:07:33.536Z,2.80
2018-12-29T09:10:02.547Z,2.47
2018-12-29T09:12:31.509Z,2.43
2018-12-29T09:15:00.469Z,2.40
2018-12-29T09:17:29.472Z,2.73
2018-12-29T09:19:58.435Z,2.97
2018-12-29T09:22:27.415Z,2.30
2018-12-29T09:24:56.518Z,2.83
2018-12-29T09:27:25.478Z,2.63
2018-12-29T09:29:54.476Z,2.37
2018-12-29T09:32:23.436Z,2.90
2018-12-29T09:34:52.365Z,2.73
2018-12-29T09:37:21.412Z,2.63
2018-12-29T09:39:50.407Z,2.23
2018-12-29T09:42:19.391Z,2.57
2018-12-29T09:44:48.464Z,2.30
2018-12-29T09:47:19.724Z,2.57
2018-12-29T09:49:48.037Z,2.60
2018-12-29T09:52:17.087Z,2.63
2018-12-29T09:54:46.085Z,2.20
2018-12-29T09:57:15.062Z,2.80
2018-12-29T09:59:45.660Z,2.80
2018-12-29T10:02:14.825Z,2.70
2018-12-29T10:04:43.773Z,2.63
2018-12-29T10:07:12.788Z,3.30
2018-12-29T10:09:41.773Z,14.07
2018-12-29T10:12:10.705Z,18.63
2018-12-29T10:14:39.671Z,11.07
2018-12-29T10:17:08.656Z,10.00
2018-12-29T10:19:37.645Z,9.00
2018-12-29T10:22:06.620Z,9.43
2018-12-29T10:24:35.623Z,8.13
2018-12-29T10:27:06.381Z,7.73
2018-12-29T10:29:35.354Z,8.03
2018-12-29T10:32:04.315Z,7.57
2018-12-29T10:34:33.304Z,6.67
2018-12-29T10:37:02.257Z,6.70
2018-12-29T10:39:31.173Z,6.10
2018-12-29T10:42:00.121Z,6.07
2018-12-29T10:44:29.112Z,6.57
2018-12-29T10:46:58.065Z,6.50
2018-12-29T10:49:29.426Z,6.53
2018-12-29T10:51:58.347Z,4.93
2018-12-29T10:54:27.448Z,5.40
2018-12-29T10:56:57.107Z,4.83
2018-12-29T10:59:26.186Z,5.77
2018-12-29T11:01:55.173Z,5.03
2018-12-29T11:04:24.148Z,5.13
2018-12-29T11:06:53.148Z,5.10
2018-12-29T11:09:22.118Z,4.57
2018-12-29T11:11:51.133Z,4.60
2018-12-29T11:14:20.090Z,4.60
2018-12-29T11:16:50.003Z,3.97
2018-12-29T11:19:19.004Z,4.50
2018-12-29T11:21:47.983Z,4.40
2018-12-29T11:24:16.973Z,4.03
2018-12-29T11:26:46.041Z,4.40
2018-12-29T11:29:15.014Z,4.23
2018-12-29T11:31:44.008Z,3.80
2018-12-29T11:34:13.034Z,4.43
2018-12-29T11:36:42.029Z,4.50
2018-12-29T11:39:11.095Z,4.07
2018-12-29T11:41:40.100Z,4.37
2018-12-29T11:44:09.017Z,3.17
2018-12-29T11:46:38.014Z,3.63
2018-12-29T11:49:06.985Z,3.30
2018-12-29T11:51:35.983Z,3.80
2018-12-29T11:54:04.980Z,3.27
2018-12-29T11:56:33.945Z,3.10
2018-12-29T11:59:02.867Z,2.93
2018-12-29T12:01:31.825Z,2.63
2018-12-29T12:04:00.748Z,2.93
2018-12-29T12:06:29.685Z,2.83
2018-12-29T12:08:58.683Z,2.90
2018-12-29T12:11:27.969Z,3.07
2018-12-29T12:13:57.025Z,3.37
2018-12-29T12:16:25.968Z,2.87
2018-12-29T12:18:54.894Z,2.87
2018-12-29T12:21:23.877Z,3.00
2018-12-29T12:23:53.187Z,2.90
2018-12-29T12:26:22.210Z,3.10
2018-12-29T12:28:51.144Z,2.63
2018-12-29T12:31:20.122Z,2.93
2018-12-29T12:33:49.079Z,2.70
2018-12-29T12:36:18.104Z,2.80
2018-12-29T12:38:47.072Z,2.83
2018-12-29T12:41:16.020Z,2.60
2018-12-29T12:43:44.955Z,2.57
2018-12-29T12:46:14.224Z,2.80
2018-12-29T12:48:43.166Z,2.63
2018-12-29T12:51:12.085Z,2.47
2018-12-29T12:53:41.034Z,2.50
2018-12-29T12:56:09.981Z,2.53
2018-12-29T12:58:38.948Z,2.80
2018-12-29T13:01:08.290Z,2.60
2018-12-29T13:03:37.224Z,3.80
2018-12-29T13:06:06.253Z,3.20
2018-12-29T13:08:35.246Z,3.50
2018-12-29T13:11:04.249Z,3.30
2018-12-29T13:13:33.233Z,3.17
2018-12-29T13:16:02.220Z,3.60
2018-12-29T13:18:31.212Z,2.97
2018-12-29T13:21:00.220Z,2.60
2018-12-29T13:23:29.212Z,2.77
2018-12-29T13:25:58.197Z,3.20
2018-12-29T13:28:27.170Z,3.57
2018-12-29T13:30:56.246Z,2.67
2018-12-29T13:33:25.239Z,2.80
2018-12-29T13:35:54.230Z,2.10
2018-12-29T13:38:23.191Z,3.20
2018-12-29T13:40:52.165Z,2.70
2018-12-29T13:43:21.144Z,2.60
2018-12-29T13:45:50.079Z,2.50
2018-12-29T13:48:20.618Z,2.53
2018-12-29T13:50:49.653Z,2.83
2018-12-29T13:53:18.644Z,2.70
2018-12-29T13:55:47.603Z,2.33
2018-12-29T13:58:16.608Z,2.77
2018-12-29T14:00:45.572Z,2.63
2018-12-29T14:03:14.646Z,2.20
2018-12-29T14:05:43.618Z,2.27
2018-12-29T14:08:12.787Z,2.33
2018-12-29T14:10:41.771Z,2.43
2018-12-29T14:13:10.818Z,2.47
2018-12-29T14:15:39.739Z,2.80
2018-12-29T14:18:08.672Z,2.20
2018-12-29T14:20:37.654Z,2.50
2018-12-29T14:23:06.924Z,2.60
2018-12-29T14:25:44.976Z,2.10
2018-12-29T14:28:13.900Z,1.97
2018-12-29T14:30:44.169Z,2.40
2018-12-29T14:33:13.219Z,2.20
2018-12-29T14:35:42.186Z,2.00
2018-12-29T14:38:11.237Z,2.20
2018-12-29T14:40:40.202Z,2.20
2018-12-29T14:43:09.158Z,2.30
2018-12-29T14:45:38.051Z,2.00
2018-12-29T14:48:07.665Z,2.10
2018-12-29T14:50:36.624Z,1.93
2018-12-29T14:53:05.561Z,2.20
2018-12-29T14:55:34.486Z,2.13
2018-12-29T14:58:03.439Z,1.97
2018-12-29T15:00:32.624Z,2.07
2018-12-29T15:03:01.507Z,2.00
2018-12-29T15:05:30.466Z,1.73
2018-12-29T15:07:59.402Z,1.73
2018-12-29T15:10:29.487Z,2.23
2018-12-29T15:12:58.523Z,1.80
2018-12-29T15:15:27.511Z,1.63
2018-12-29T15:17:56.477Z,2.03
2018-12-29T15:20:25.499Z,2.33
2018-12-29T15:22:54.891Z,1.57
2018-12-29T15:25:23.860Z,1.67
2018-12-29T15:27:52.802Z,1.83
2018-12-29T15:30:21.824Z,1.63
2018-12-29T15:32:50.822Z,1.67
2018-12-29T15:35:19.821Z,2.20
2018-12-29T15:37:48.785Z,1.87
2018-12-29T15:40:17.843Z,1.70
2018-12-29T15:42:46.825Z,1.73
2018-12-29T15:45:15.799Z,1.70
2018-12-29T15:47:44.792Z,1.90
2018-12-29T15:50:13.766Z,1.90
2018-12-29T15:52:42.717Z,2.10
2018-12-29T15:55:11.688Z,1.90
2018-12-29T15:57:40.589Z,1.70
2018-12-29T16:00:09.593Z,1.70
2018-12-29T16:02:38.549Z,1.40
2018-12-29T16:05:07.507Z,1.63
2018-12-29T16:07:36.698Z,1.70
2018-12-29T16:10:05.811Z,1.83
2018-12-29T16:12:34.765Z,1.43
2018-12-29T16:15:03.785Z,1.70
2018-12-29T16:17:32.815Z,1.53
2018-12-29T16:20:01.780Z,1.63
2018-12-29T16:22:30.785Z,1.43
2018-12-29T16:24:59.757Z,1.80
2018-12-29T16:27:28.825Z,1.67
2018-12-29T16:29:57.800Z,1.63
2018-12-29T16:32:26.781Z,1.67
2018-12-29T16:34:55.789Z,1.53
2018-12-29T16:37:24.757Z,1.70
2018-12-29T16:39:53.746Z,1.63
2018-12-29T16:42:23.020Z,1.47
2018-12-29T16:44:52.108Z,1.63
2018-12-29T16:47:21.092Z,1.80
2018-12-29T16:49:50.045Z,1.70
2018-12-29T16:52:19.516Z,1.47
2018-12-29T16:54:48.489Z,1.53
2018-12-29T16:57:17.470Z,1.57
2018-12-29T16:59:46.433Z,2.07
2018-12-29T17:02:15.739Z,1.90
2018-12-29T17:04:44.719Z,1.80
2018-12-29T17:07:13.673Z,1.77
2018-12-29T17:09:43.638Z,1.90
2018-12-29T17:12:12.812Z,1.47
2018-12-29T17:14:41.812Z,1.97
2018-12-29T17:17:10.775Z,1.80
2018-12-29T17:19:39.989Z,2.10
2018-12-29T17:22:08.948Z,1.70
2018-12-29T17:24:38.384Z,1.77
2018-12-29T17:27:07.557Z,2.20
2018-12-29T17:29:36.517Z,1.37
2018-12-29T17:32:05.509Z,1.80
2018-12-29T17:34:34.516Z,2.13
2018-12-29T17:37:03.496Z,1.93
2018-12-29T17:39:32.467Z,2.07
2018-12-29T17:42:01.472Z,2.17
2018-12-29T17:44:30.541Z,2.50
2018-12-29T17:46:59.508Z,2.13
2018-12-29T17:49:28.503Z,2.20
2018-12-29T17:51:57.789Z,2.00
2018-12-29T17:54:26.775Z,2.07
2018-12-29T17:56:55.770Z,2.00
2018-12-29T17:59:24.745Z,2.47
2018-12-29T18:01:54.013Z,1.90
2018-12-29T18:04:23.037Z,2.00
2018-12-29T18:06:52.027Z,2.00
2018-12-29T18:09:20.992Z,2.37
2018-12-29T18:11:49.994Z,1.80
2018-12-29T18:14:18.971Z,1.70
2018-12-29T18:16:47.925Z,1.80
2018-12-29T18:19:17.320Z,1.60
2018-12-29T18:21:46.298Z,1.50
2018-12-29T18:24:15.339Z,1.77
2018-12-29T18:26:44.372Z,1.90
2018-12-29T18:29:13.610Z,1.70
2018-12-29T18:31:42.545Z,3.43
2018-12-29T18:34:11.536Z,2.23
2018-12-29T18:36:40.545Z,3.63
2018-12-29T18:39:09.671Z,4.87
2018-12-29T18:41:38.720Z,3.17
2018-12-29T18:44:08.056Z,2.53
2018-12-29T18:46:37.048Z,2.60
2018-12-29T18:49:06.025Z,2.73
2018-12-29T18:51:38.907Z,2.50
2018-12-29T18:54:10.193Z,2.73
2018-12-29T18:56:45.711Z,2.50
2018-12-29T18:59:17.448Z,2.00
2018-12-29T19:01:49.207Z,2.27
2018-12-29T19:04:18.517Z,2.53
2018-12-29T19:06:48.217Z,4.20
2018-12-29T19:09:18.960Z,3.10
2018-12-29T19:11:48.235Z,2.27
2018-12-29T19:14:18.053Z,2.87
2018-12-29T19:16:47.041Z,2.80
2018-12-29T19:19:16.026Z,2.60
2018-12-29T19:21:44.985Z,2.20
2018-12-29T19:24:14.057Z,2.43
2018-12-29T19:26:43.245Z,2.53
2018-12-29T19:29:12.213Z,2.30
2018-12-29T19:31:44.809Z,2.70
2018-12-29T19:34:11.912Z,2.43
2018-12-29T19:36:40.915Z,2.10
2018-12-29T19:39:10.384Z,2.30
2018-12-29T19:41:46.347Z,2.10
2018-12-29T19:44:10.045Z,3.10
2018-12-29T19:46:39.339Z,4.17
2018-12-29T19:50:41.952Z,6.20
2018-12-29T19:53:11.278Z,6.10
2018-12-29T19:55:40.349Z,7.17
2018-12-29T19:58:09.471Z,6.93
2018-12-29T20:00:39.489Z,6.60
2018-12-29T20:03:11.334Z,6.27
2018-12-29T20:05:40.843Z,5.20
2018-12-29T20:08:11.009Z,6.20
2018-12-29T20:10:40.233Z,5.73
2018-12-29T20:13:09.341Z,6.27
2018-12-29T20:15:38.471Z,6.93
2018-12-29T20:18:07.622Z,7.60
2018-12-29T20:20:36.786Z,8.00
2018-12-29T20:23:05.946Z,9.23
2018-12-29T20:25:34.998Z,9.10
2018-12-29T20:28:04.211Z,10.07
2018-12-29T20:30:33.214Z,10.43
2018-12-29T20:33:02.390Z,10.93
2018-12-29T20:35:31.477Z,11.93
2018-12-29T20:38:00.441Z,11.07
2018-12-29T20:40:29.460Z,11.23
2018-12-29T20:42:58.425Z,10.47
2018-12-29T20:45:27.557Z,11.47
2018-12-29T20:47:57.223Z,10.73
2018-12-29T20:50:26.888Z,9.90
2018-12-29T20:52:55.935Z,10.40
2018-12-29T20:55:25.009Z,10.10
2018-12-29T20:57:54.699Z,9.97
2018-12-29T21:00:23.798Z,10.33
2018-12-29T21:02:53.145Z,9.63
2018-12-29T21:05:22.140Z,9.60
2018-12-29T21:07:51.156Z,8.43
2018-12-29T21:10:20.206Z,8.27
2018-12-29T21:12:49.165Z,9.27
2018-12-29T21:15:18.155Z,9.10
2018-12-29T21:17:47.244Z,8.63
2018-12-29T21:20:17.598Z,7.57
2018-12-29T21:22:46.699Z,8.07
2018-12-29T21:25:15.739Z,9.43
2018-12-29T21:27:44.730Z,15.80
2018-12-29T21:30:13.911Z,17.77
2018-12-29T21:32:42.983Z,19.40
2018-12-29T21:35:12.368Z,20.13
2018-12-29T21:37:41.363Z,21.97
2018-12-29T21:40:10.312Z,24.07
2018-12-29T21:42:39.581Z,29.07
2018-12-29T21:45:08.597Z,32.20
2018-12-29T21:47:37.700Z,35.47
2018-12-29T21:50:10.277Z,41.70
2018-12-29T21:52:39.341Z,45.27
2018-12-29T21:55:08.432Z,47.67
2018-12-29T21:57:37.407Z,48.37
2018-12-29T22:00:07.102Z,49.40
2018-12-29T22:02:36.241Z,55.70
2018-12-29T22:05:05.267Z,60.30
2018-12-29T22:07:34.253Z,68.50
2018-12-29T22:10:03.244Z,72.13
2018-12-29T22:12:32.208Z,73.50
2018-12-29T22:15:01.261Z,75.27
2018-12-29T22:17:30.261Z,73.83
2018-12-29T22:19:59.280Z,73.30
2018-12-29T22:22:28.745Z,72.27
2018-12-29T22:24:57.731Z,71.47
2018-12-29T22:27:26.713Z,72.40
2018-12-29T22:29:55.781Z,66.47
2018-12-29T22:32:24.875Z,66.83
2018-12-29T22:34:54.045Z,62.93
2018-12-29T22:37:23.013Z,63.10
2018-12-29T22:39:52.004Z,61.60
2018-12-29T22:42:21.006Z,60.20
2018-12-29T22:44:49.997Z,56.33
2018-12-29T22:47:19.100Z,54.10
2018-12-29T22:49:48.169Z,51.73
2018-12-29T22:52:17.236Z,51.47
2018-12-29T22:54:46.218Z,50.87
2018-12-29T22:57:15.209Z,46.90
2018-12-29T22:59:44.199Z,45.40
2018-12-29T23:02:13.198Z,45.57
2018-12-29T23:04:42.169Z,42.10
2018-12-29T23:07:11.614Z,41.57
2018-12-29T23:09:40.725Z,39.50
2018-12-29T23:12:09.723Z,38.63
2018-12-29T23:14:38.733Z,38.33
2018-12-29T23:17:07.820Z,35.50
2018-12-29T23:19:36.824Z,34.73
2018-12-29T23:22:05.883Z,35.07
2018-12-29T23:24:34.923Z,32.27
2018-12-29T23:27:03.959Z,32.30
2018-12-29T23:29:33.031Z,31.03
2018-12-29T23:32:02.083Z,29.10
2018-12-29T23:34:31.380Z,28.70
2018-12-29T23:37:00.377Z,28.47
2018-12-29T23:39:29.361Z,26.63
2018-12-29T23:41:58.619Z,26.57
2018-12-29T23:44:27.620Z,23.37
2018-12-29T23:46:56.627Z,24.53
2018-12-29T23:49:25.872Z,24.20
2018-12-29T23:51:55.153Z,23.10
2018-12-29T23:54:24.141Z,22.50
2018-12-29T23:56:53.348Z,21.57
2018-12-29T23:59:22.388Z,21.77
